sensor_id;sensor_type;location;lat;lon;timestamp;pressure;altitude;pressure_sealevel;temperature;humidity
7802;BME280;3945;48.952;9.506;2023-02-13T00:01:53;99863.66;;;3.21;95.25
7802;BME280;3945;48.952;9.506;2023-02-13T00:04:20;99865.06;;;3.16;95.20
7802;BME280;3945;48.952;9.506;2023-02-13T00:06:46;99862.56;;;3.14;94.43
7802;BME280;3945;48.952;9.506;2023-02-13T00:09:14;99860.09;;;3.12;95.12
7802;BME280;3945;48.952;9.506;2023-02-13T00:11:40;99861.63;;;3.05;94.22
7802;BME280;3945;48.952;9.506;2023-02-13T00:14:06;99864.41;;;3.04;95.07
7802;BME280;3945;48.952;9.506;2023-02-13T00:16:33;99860.09;;;3.03;95.45
7802;BME280;3945;48.952;9.506;2023-02-13T00:18:59;99865.53;;;3.01;95.55
7802;BME280;3945;48.952;9.506;2023-02-13T00:21:25;99856.00;;;3.00;95.88
7802;BME280;3945;48.952;9.506;2023-02-13T00:23:52;99862.50;;;2.96;94.73
7802;BME280;3945;48.952;9.506;2023-02-13T00:26:19;99867.22;;;2.93;94.88
7802;BME280;3945;48.952;9.506;2023-02-13T00:28:46;99858.13;;;2.87;95.01
7802;BME280;3945;48.952;9.506;2023-02-13T00:31:13;99859.22;;;2.85;95.22
7802;BME280;3945;48.952;9.506;2023-02-13T00:33:40;99855.31;;;2.89;96.31
7802;BME280;3945;48.952;9.506;2023-02-13T00:36:07;99854.66;;;2.87;95.06
7802;BME280;3945;48.952;9.506;2023-02-13T00:38:34;99853.00;;;2.86;95.84
7802;BME280;3945;48.952;9.506;2023-02-13T00:41:01;99850.91;;;2.89;95.66
7802;BME280;3945;48.952;9.506;2023-02-13T00:43:29;99855.75;;;2.94;96.89
7802;BME280;3945;48.952;9.506;2023-02-13T00:45:55;99858.22;;;2.95;96.15
7802;BME280;3945;48.952;9.506;2023-02-13T00:48:22;99854.78;;;2.95;96.73
7802;BME280;3945;48.952;9.506;2023-02-13T00:50:49;99846.72;;;2.96;96.17
7802;BME280;3945;48.952;9.506;2023-02-13T00:53:16;99852.53;;;3.00;96.37
7802;BME280;3945;48.952;9.506;2023-02-13T00:55:42;99845.47;;;3.00;95.89
7802;BME280;3945;48.952;9.506;2023-02-13T00:58:09;99839.25;;;3.01;95.97
7802;BME280;3945;48.952;9.506;2023-02-13T01:00:36;99848.38;;;2.97;95.52
7802;BME280;3945;48.952;9.506;2023-02-13T01:03:03;99839.97;;;2.94;94.96
7802;BME280;3945;48.952;9.506;2023-02-13T01:05:29;99838.72;;;2.88;95.50
7802;BME280;3945;48.952;9.506;2023-02-13T01:07:56;99843.44;;;2.85;94.74
7802;BME280;3945;48.952;9.506;2023-02-13T01:10:22;99837.81;;;2.80;94.74
7802;BME280;3945;48.952;9.506;2023-02-13T01:12:48;99842.66;;;2.74;93.81
7802;BME280;3945;48.952;9.506;2023-02-13T01:15:15;99844.19;;;2.67;93.24
7802;BME280;3945;48.952;9.506;2023-02-13T01:17:42;99845.31;;;2.65;93.15
7802;BME280;3945;48.952;9.506;2023-02-13T01:20:09;99842.13;;;2.61;92.76
7802;BME280;3945;48.952;9.506;2023-02-13T01:22:36;99836.75;;;2.53;93.55
7802;BME280;3945;48.952;9.506;2023-02-13T01:25:03;99837.34;;;2.47;92.76
7802;BME280;3945;48.952;9.506;2023-02-13T01:27:30;99846.19;;;2.46;93.55
7802;BME280;3945;48.952;9.506;2023-02-13T01:29:57;99848.16;;;2.44;93.41
7802;BME280;3945;48.952;9.506;2023-02-13T01:32:23;99852.84;;;2.41;92.26
7802;BME280;3945;48.952;9.506;2023-02-13T01:34:51;99845.53;;;2.34;92.20
7802;BME280;3945;48.952;9.506;2023-02-13T01:37:17;99850.66;;;2.26;92.33
7802;BME280;3945;48.952;9.506;2023-02-13T01:39:44;99859.09;;;2.20;92.28
7802;BME280;3945;48.952;9.506;2023-02-13T01:42:12;99846.66;;;2.13;91.83
7802;BME280;3945;48.952;9.506;2023-02-13T01:44:47;99853.84;;;2.11;92.20
7802;BME280;3945;48.952;9.506;2023-02-13T01:47:15;99847.22;;;2.07;92.56
7802;BME280;3945;48.952;9.506;2023-02-13T01:49:43;99848.59;;;2.01;92.35
7802;BME280;3945;48.952;9.506;2023-02-13T01:52:12;99850.25;;;1.92;92.28
7802;BME280;3945;48.952;9.506;2023-02-13T01:54:39;99848.19;;;1.86;91.56
7802;BME280;3945;48.952;9.506;2023-02-13T01:57:06;99850.81;;;1.86;91.51
7802;BME280;3945;48.952;9.506;2023-02-13T01:59:36;99846.53;;;1.85;92.33
7802;BME280;3945;48.952;9.506;2023-02-13T02:02:05;99846.66;;;1.84;91.88
7802;BME280;3945;48.952;9.506;2023-02-13T02:04:32;99851.06;;;1.83;91.92
7802;BME280;3945;48.952;9.506;2023-02-13T02:07:01;99851.06;;;1.83;91.14
7802;BME280;3945;48.952;9.506;2023-02-13T02:09:31;99845.13;;;1.81;90.89
7802;BME280;3945;48.952;9.506;2023-02-13T02:12:00;99838.38;;;1.79;90.79
7802;BME280;3945;48.952;9.506;2023-02-13T02:14:28;99838.91;;;1.82;91.21
7802;BME280;3945;48.952;9.506;2023-02-13T02:16:54;99845.28;;;1.80;90.70
7802;BME280;3945;48.952;9.506;2023-02-13T02:19:23;99844.72;;;1.76;90.71
7802;BME280;3945;48.952;9.506;2023-02-13T02:27:30;99837.81;;;1.75;90.42
7802;BME280;3945;48.952;9.506;2023-02-13T02:30:15;99830.22;;;1.72;90.70
7802;BME280;3945;48.952;9.506;2023-02-13T02:32:53;99832.03;;;1.72;90.92
7802;BME280;3945;48.952;9.506;2023-02-13T02:35:24;99827.03;;;1.69;90.64
7802;BME280;3945;48.952;9.506;2023-02-13T02:37:59;99828.00;;;1.68;91.14
7802;BME280;3945;48.952;9.506;2023-02-13T02:40:28;99824.53;;;1.67;91.02
7802;BME280;3945;48.952;9.506;2023-02-13T02:43:02;99829.13;;;1.65;91.04
7802;BME280;3945;48.952;9.506;2023-02-13T02:45:34;99820.41;;;1.65;90.88
7802;BME280;3945;48.952;9.506;2023-02-13T02:48:06;99824.84;;;1.64;90.62
7802;BME280;3945;48.952;9.506;2023-02-13T02:50:53;99825.66;;;1.65;90.54
7802;BME280;3945;48.952;9.506;2023-02-13T02:53:26;99814.47;;;1.63;91.05
7802;BME280;3945;48.952;9.506;2023-02-13T02:55:57;99820.41;;;1.65;91.67
7802;BME280;3945;48.952;9.506;2023-02-13T02:58:27;99822.06;;;1.66;91.50
7802;BME280;3945;48.952;9.506;2023-02-13T03:01:15;99820.25;;;1.66;91.50
7802;BME280;3945;48.952;9.506;2023-02-13T03:04:02;99817.63;;;1.66;90.74
7802;BME280;3945;48.952;9.506;2023-02-13T03:06:47;99821.50;;;1.62;90.89
7802;BME280;3945;48.952;9.506;2023-02-13T03:09:16;99819.72;;;1.63;91.33
7802;BME280;3945;48.952;9.506;2023-02-13T03:12:02;99824.56;;;1.58;91.68
7802;BME280;3945;48.952;9.506;2023-02-13T03:14:46;99829.94;;;1.56;91.54
7802;BME280;3945;48.952;9.506;2023-02-13T03:17:14;99823.03;;;1.55;91.44
7802;BME280;3945;48.952;9.506;2023-02-13T03:20:05;99834.19;;;1.47;90.28
7802;BME280;3945;48.952;9.506;2023-02-13T03:22:58;99837.34;;;1.41;91.00
7802;BME280;3945;48.952;9.506;2023-02-13T03:25:28;99842.72;;;1.40;89.95
7802;BME280;3945;48.952;9.506;2023-02-13T03:27:59;99843.03;;;1.37;90.41
7802;BME280;3945;48.952;9.506;2023-02-13T03:30:48;99847.56;;;1.35;90.65
7802;BME280;3945;48.952;9.506;2023-02-13T03:33:19;99844.22;;;1.33;90.52
7802;BME280;3945;48.952;9.506;2023-02-13T03:35:52;99852.38;;;1.30;90.39
7802;BME280;3945;48.952;9.506;2023-02-13T03:38:42;99849.06;;;1.28;89.72
7802;BME280;3945;48.952;9.506;2023-02-13T03:41:10;99850.97;;;1.26;89.77
7802;BME280;3945;48.952;9.506;2023-02-13T03:43:47;99855.81;;;1.21;89.91
7802;BME280;3945;48.952;9.506;2023-02-13T03:46:15;99855.81;;;1.21;89.02
7802;BME280;3945;48.952;9.506;2023-02-13T03:48:43;99854.97;;;1.20;89.38
7802;BME280;3945;48.952;9.506;2023-02-13T03:51:31;99863.09;;;1.17;89.40
7802;BME280;3945;48.952;9.506;2023-02-13T03:54:00;99851.94;;;1.15;89.81
7802;BME280;3945;48.952;9.506;2023-02-13T03:56:30;99862.78;;;1.10;89.48
7802;BME280;3945;48.952;9.506;2023-02-13T03:59:19;99857.97;;;1.06;90.13
7802;BME280;3945;48.952;9.506;2023-02-13T04:01:49;99870.09;;;1.07;89.76
7802;BME280;3945;48.952;9.506;2023-02-13T04:04:19;99873.81;;;1.04;89.42
7802;BME280;3945;48.952;9.506;2023-02-13T04:06:49;99877.50;;;1.02;89.74
7802;BME280;3945;48.952;9.506;2023-02-13T04:09:17;99874.72;;;0.94;89.74
7802;BME280;3945;48.952;9.506;2023-02-13T04:11:46;99876.66;;;0.92;89.55
7802;BME280;3945;48.952;9.506;2023-02-13T04:14:15;99876.78;;;0.90;89.66
7802;BME280;3945;48.952;9.506;2023-02-13T04:16:45;99882.28;;;0.87;89.65
7802;BME280;3945;48.952;9.506;2023-02-13T04:19:13;99878.03;;;0.86;89.10
7802;BME280;3945;48.952;9.506;2023-02-13T04:21:40;99879.22;;;0.82;89.50
7802;BME280;3945;48.952;9.506;2023-02-13T04:24:08;99883.91;;;0.78;89.42
7802;BME280;3945;48.952;9.506;2023-02-13T04:26:35;99889.53;;;0.74;88.96
7802;BME280;3945;48.952;9.506;2023-02-13T04:29:03;99885.38;;;0.71;89.12
7802;BME280;3945;48.952;9.506;2023-02-13T04:31:29;99891.59;;;0.70;89.03
7802;BME280;3945;48.952;9.506;2023-02-13T04:33:56;99882.63;;;0.73;88.85
7802;BME280;3945;48.952;9.506;2023-02-13T04:36:22;99883.84;;;0.69;88.79
7802;BME280;3945;48.952;9.506;2023-02-13T04:38:48;99887.69;;;0.65;89.11
7802;BME280;3945;48.952;9.506;2023-02-13T04:41:16;99886.16;;;0.62;89.11
7802;BME280;3945;48.952;9.506;2023-02-13T04:43:43;99886.16;;;0.62;89.72
7802;BME280;3945;48.952;9.506;2023-02-13T04:46:09;99881.16;;;0.59;90.14
7802;BME280;3945;48.952;9.506;2023-02-13T04:48:35;99877.03;;;0.57;89.94
7802;BME280;3945;48.952;9.506;2023-02-13T04:51:02;99880.34;;;0.59;90.30
7802;BME280;3945;48.952;9.506;2023-02-13T04:53:28;99891.53;;;0.61;91.08
7802;BME280;3945;48.952;9.506;2023-02-13T04:55:54;99882.28;;;0.57;91.23
7802;BME280;3945;48.952;9.506;2023-02-13T04:58:22;99883.22;;;0.56;90.43
7802;BME280;3945;48.952;9.506;2023-02-13T05:00:48;99877.16;;;0.55;90.68
7802;BME280;3945;48.952;9.506;2023-02-13T05:03:15;99889.41;;;0.55;90.93
7802;BME280;3945;48.952;9.506;2023-02-13T05:05:41;99886.91;;;0.53;90.87
7802;BME280;3945;48.952;9.506;2023-02-13T05:08:08;99881.81;;;0.52;90.84
7802;BME280;3945;48.952;9.506;2023-02-13T05:10:35;99880.03;;;0.52;90.98
7802;BME280;3945;48.952;9.506;2023-02-13T05:13:01;99890.38;;;0.54;91.01
7802;BME280;3945;48.952;9.506;2023-02-13T05:15:29;99892.03;;;0.55;90.91
7802;BME280;3945;48.952;9.506;2023-02-13T05:17:55;99894.53;;;0.56;90.87
7802;BME280;3945;48.952;9.506;2023-02-13T05:20:22;99890.97;;;0.57;90.79
7802;BME280;3945;48.952;9.506;2023-02-13T05:22:49;99892.59;;;0.58;90.66
7802;BME280;3945;48.952;9.506;2023-02-13T05:25:33;99890.56;;;0.62;90.53
7802;BME280;3945;48.952;9.506;2023-02-13T05:28:00;99888.19;;;0.59;90.67
7802;BME280;3945;48.952;9.506;2023-02-13T05:30:26;99893.44;;;0.59;90.92
7802;BME280;3945;48.952;9.506;2023-02-13T05:32:54;99892.59;;;0.58;90.47
7802;BME280;3945;48.952;9.506;2023-02-13T05:35:20;99889.28;;;0.56;90.25
7802;BME280;3945;48.952;9.506;2023-02-13T05:37:47;99893.00;;;0.54;90.49
7802;BME280;3945;48.952;9.506;2023-02-13T05:40:13;99893.00;;;0.54;90.70
7802;BME280;3945;48.952;9.506;2023-02-13T05:42:40;99894.59;;;0.45;90.98
7802;BME280;3945;48.952;9.506;2023-02-13T05:45:06;99884.38;;;0.42;90.92
7802;BME280;3945;48.952;9.506;2023-02-13T05:47:33;99890.44;;;0.43;91.56
7802;BME280;3945;48.952;9.506;2023-02-13T05:50:01;99894.47;;;0.47;91.38
7802;BME280;3945;48.952;9.506;2023-02-13T05:52:27;99890.88;;;0.48;91.47
7802;BME280;3945;48.952;9.506;2023-02-13T05:54:54;99888.28;;;0.48;91.39
7802;BME280;3945;48.952;9.506;2023-02-13T05:57:20;99891.00;;;0.46;91.40
7802;BME280;3945;48.952;9.506;2023-02-13T05:59:46;99889.22;;;0.47;91.64
7802;BME280;3945;48.952;9.506;2023-02-13T06:02:13;99885.78;;;0.46;91.76
7802;BME280;3945;48.952;9.506;2023-02-13T06:04:39;99887.56;;;0.46;91.71
7802;BME280;3945;48.952;9.506;2023-02-13T06:07:07;99885.06;;;0.44;91.57
7802;BME280;3945;48.952;9.506;2023-02-13T06:09:33;99882.19;;;0.47;91.63
7802;BME280;3945;48.952;9.506;2023-02-13T06:11:59;99884.81;;;0.47;91.33
7802;BME280;3945;48.952;9.506;2023-02-13T06:14:25;99890.06;;;0.47;91.67
7802;BME280;3945;48.952;9.506;2023-02-13T06:16:52;99881.38;;;0.47;92.08
7802;BME280;3945;48.952;9.506;2023-02-13T06:19:18;99882.31;;;0.46;91.54
7802;BME280;3945;48.952;9.506;2023-02-13T06:21:45;99885.78;;;0.46;92.13
7802;BME280;3945;48.952;9.506;2023-02-13T06:24:12;99897.78;;;0.49;92.46
7802;BME280;3945;48.952;9.506;2023-02-13T06:26:39;99899.47;;;0.50;92.25
7802;BME280;3945;48.952;9.506;2023-02-13T06:29:05;99893.13;;;0.52;91.83
7802;BME280;3945;48.952;9.506;2023-02-13T06:31:33;99892.44;;;0.50;91.79
7802;BME280;3945;48.952;9.506;2023-02-13T06:33:59;99888.81;;;0.51;91.72
7802;BME280;3945;48.952;9.506;2023-02-13T06:36:26;99891.44;;;0.51;91.60
7802;BME280;3945;48.952;9.506;2023-02-13T06:38:52;99889.66;;;0.52;91.98
7802;BME280;3945;48.952;9.506;2023-02-13T06:41:20;99898.22;;;0.54;91.72
7802;BME280;3945;48.952;9.506;2023-02-13T06:43:46;99900.84;;;0.54;91.63
7802;BME280;3945;48.952;9.506;2023-02-13T06:46:12;99896.44;;;0.54;92.08
7802;BME280;3945;48.952;9.506;2023-02-13T06:48:39;99905.13;;;0.55;91.56
7802;BME280;3945;48.952;9.506;2023-02-13T06:51:05;99900.84;;;0.54;91.58
7802;BME280;3945;48.952;9.506;2023-02-13T06:53:31;99907.63;;;0.56;91.40
7802;BME280;3945;48.952;9.506;2023-02-13T06:55:58;99906.41;;;0.60;91.23
7802;BME280;3945;48.952;9.506;2023-02-13T06:58:25;99909.28;;;0.57;91.79
7802;BME280;3945;48.952;9.506;2023-02-13T07:00:52;99905.84;;;0.57;92.11
7802;BME280;3945;48.952;9.506;2023-02-13T07:03:18;99902.38;;;0.56;92.53
7802;BME280;3945;48.952;9.506;2023-02-13T07:05:45;99906.53;;;0.59;93.32
7802;BME280;3945;48.952;9.506;2023-02-13T07:08:11;99917.31;;;0.65;94.23
7802;BME280;3945;48.952;9.506;2023-02-13T07:10:38;99912.53;;;0.70;94.61
7802;BME280;3945;48.952;9.506;2023-02-13T07:13:04;99910.34;;;0.75;95.44
7802;BME280;3945;48.952;9.506;2023-02-13T07:15:32;99911.50;;;0.83;96.09
7802;BME280;3945;48.952;9.506;2023-02-13T07:17:59;99900.25;;;0.92;95.85
7802;BME280;3945;48.952;9.506;2023-02-13T07:20:25;99909.38;;;0.97;96.74
7802;BME280;3945;48.952;9.506;2023-02-13T07:22:52;99911.75;;;1.00;95.88
7802;BME280;3945;48.952;9.506;2023-02-13T07:25:18;99908.13;;;1.01;96.33
7802;BME280;3945;48.952;9.506;2023-02-13T07:27:44;99906.22;;;1.03;95.44
7802;BME280;3945;48.952;9.506;2023-02-13T07:30:11;99900.84;;;1.05;96.25
7802;BME280;3945;48.952;9.506;2023-02-13T07:32:39;99901.75;;;1.15;95.91
7802;BME280;3945;48.952;9.506;2023-02-13T07:35:06;99903.94;;;1.20;95.91
7802;BME280;3945;48.952;9.506;2023-02-13T07:37:32;99906.16;;;1.24;96.50
7802;BME280;3945;48.952;9.506;2023-02-13T07:39:58;99906.03;;;1.26;96.13
7802;BME280;3945;48.952;9.506;2023-02-13T07:42:25;99907.47;;;1.30;95.63
7802;BME280;3945;48.952;9.506;2023-02-13T07:44:51;99902.75;;;1.33;95.99
7802;BME280;3945;48.952;9.506;2023-02-13T07:47:17;99914.06;;;1.34;95.26
7802;BME280;3945;48.952;9.506;2023-02-13T07:49:45;99912.28;;;1.34;94.03
7802;BME280;3945;48.952;9.506;2023-02-13T07:52:11;99900.59;;;1.48;94.87
7802;BME280;3945;48.952;9.506;2023-02-13T07:54:38;99904.66;;;1.71;94.55
7802;BME280;3945;48.952;9.506;2023-02-13T07:57:11;99904.97;;;1.97;94.43
7802;BME280;3945;48.952;9.506;2023-02-13T07:59:37;99904.69;;;2.19;93.17
7802;BME280;3945;48.952;9.506;2023-02-13T08:02:03;99904.28;;;2.43;92.01
7802;BME280;3945;48.952;9.506;2023-02-13T08:04:30;99907.44;;;2.66;90.53
7802;BME280;3945;48.952;9.506;2023-02-13T08:06:57;99915.53;;;2.82;89.41
7802;BME280;3945;48.952;9.506;2023-02-13T08:09:24;99912.63;;;2.95;88.00
7802;BME280;3945;48.952;9.506;2023-02-13T08:12:22;99907.31;;;3.04;88.03
7802;BME280;3945;48.952;9.506;2023-02-13T08:14:48;99913.25;;;3.16;87.43
7802;BME280;3945;48.952;9.506;2023-02-13T08:17:15;99906.25;;;3.25;86.35
7802;BME280;3945;48.952;9.506;2023-02-13T08:19:41;99903.44;;;3.36;86.31
7802;BME280;3945;48.952;9.506;2023-02-13T08:22:09;99899.94;;;3.45;86.43
7802;BME280;3945;48.952;9.506;2023-02-13T08:24:35;99892.81;;;3.55;86.19
7802;BME280;3945;48.952;9.506;2023-02-13T08:27:02;99899.84;;;3.64;85.14
7802;BME280;3945;48.952;9.506;2023-02-13T08:29:28;99901.34;;;3.67;84.98
7802;BME280;3945;48.952;9.506;2023-02-13T08:31:54;99891.34;;;3.70;85.14
7802;BME280;3945;48.952;9.506;2023-02-13T08:34:21;99893.47;;;3.84;85.01
7802;BME280;3945;48.952;9.506;2023-02-13T08:36:47;99894.38;;;3.93;85.17
7802;BME280;3945;48.952;9.506;2023-02-13T08:39:15;99899.03;;;3.99;84.44
7802;BME280;3945;48.952;9.506;2023-02-13T08:41:41;99897.47;;;4.06;83.52
7802;BME280;3945;48.952;9.506;2023-02-13T08:44:08;99893.25;;;4.13;83.67
7802;BME280;3945;48.952;9.506;2023-02-13T08:46:35;99900.75;;;4.26;84.41
7802;BME280;3945;48.952;9.506;2023-02-13T08:49:01;99901.38;;;4.38;83.68
7802;BME280;3945;48.952;9.506;2023-02-13T08:51:27;99899.31;;;4.49;83.33
7802;BME280;3945;48.952;9.506;2023-02-13T08:53:54;99897.09;;;4.62;82.71
7802;BME280;3945;48.952;9.506;2023-02-13T08:56:21;99898.97;;;4.70;82.36
7802;BME280;3945;48.952;9.506;2023-02-13T08:58:48;99895.91;;;4.83;81.89
7802;BME280;3945;48.952;9.506;2023-02-13T09:01:15;99896.81;;;4.91;81.36
7802;BME280;3945;48.952;9.506;2023-02-13T09:03:41;99890.31;;;5.03;80.99
7802;BME280;3945;48.952;9.506;2023-02-13T09:06:07;99891.81;;;5.14;80.89
7802;BME280;3945;48.952;9.506;2023-02-13T09:08:34;99891.88;;;5.22;80.66
7802;BME280;3945;48.952;9.506;2023-02-13T09:11:02;99896.69;;;5.35;80.45
7802;BME280;3945;48.952;9.506;2023-02-13T09:13:31;99896.88;;;5.41;80.55
7802;BME280;3945;48.952;9.506;2023-02-13T09:15:58;99900.72;;;5.47;80.34
7802;BME280;3945;48.952;9.506;2023-02-13T09:18:25;99893.31;;;5.50;80.19
7802;BME280;3945;48.952;9.506;2023-02-13T09:20:56;99895.81;;;5.60;80.10
7802;BME280;3945;48.952;9.506;2023-02-13T09:23:22;99896.00;;;5.67;79.79
7802;BME280;3945;48.952;9.506;2023-02-13T09:25:48;99895.69;;;5.78;79.52
7802;BME280;3945;48.952;9.506;2023-02-13T09:28:15;99898.09;;;5.89;79.79
7802;BME280;3945;48.952;9.506;2023-02-13T09:30:42;99900.41;;;6.00;78.87
7802;BME280;3945;48.952;9.506;2023-02-13T09:33:09;99904.72;;;6.17;78.88
7802;BME280;3945;48.952;9.506;2023-02-13T09:35:36;99899.28;;;6.35;79.27
7802;BME280;3945;48.952;9.506;2023-02-13T09:38:05;99894.50;;;6.55;77.78
7802;BME280;3945;48.952;9.506;2023-02-13T09:40:33;99896.44;;;6.77;78.12
7802;BME280;3945;48.952;9.506;2023-02-13T09:43:03;99907.50;;;6.97;76.40
7802;BME280;3945;48.952;9.506;2023-02-13T09:45:30;99900.00;;;7.17;76.16
7802;BME280;3945;48.952;9.506;2023-02-13T09:47:58;99905.25;;;7.41;76.06
7802;BME280;3945;48.952;9.506;2023-02-13T09:50:25;99902.16;;;7.60;75.11
7802;BME280;3945;48.952;9.506;2023-02-13T09:52:54;99904.34;;;7.88;74.30
7802;BME280;3945;48.952;9.506;2023-02-13T09:55:23;99900.56;;;8.13;73.59
7802;BME280;3945;48.952;9.506;2023-02-13T09:57:53;99902.03;;;8.38;72.97
7802;BME280;3945;48.952;9.506;2023-02-13T10:00:24;99904.59;;;8.69;71.84
7802;BME280;3945;48.952;9.506;2023-02-13T10:03:06;99898.88;;;8.95;70.75
7802;BME280;3945;48.952;9.506;2023-02-13T10:05:43;99903.03;;;9.27;70.54
7802;BME280;3945;48.952;9.506;2023-02-13T10:08:16;99904.38;;;9.52;69.13
7802;BME280;3945;48.952;9.506;2023-02-13T10:10:47;99896.16;;;9.83;68.57
7802;BME280;3945;48.952;9.506;2023-02-13T10:13:20;99892.22;;;10.15;67.52
7802;BME280;3945;48.952;9.506;2023-02-13T10:15:50;99894.97;;;10.43;66.27
7802;BME280;3945;48.952;9.506;2023-02-13T10:18:21;99897.28;;;10.74;65.65
7802;BME280;3945;48.952;9.506;2023-02-13T10:20:49;99901.22;;;11.06;64.77
7802;BME280;3945;48.952;9.506;2023-02-13T10:23:19;99898.16;;;11.43;63.52
7802;BME280;3945;48.952;9.506;2023-02-13T10:25:48;99890.78;;;11.86;61.97
7802;BME280;3945;48.952;9.506;2023-02-13T10:28:16;99892.31;;;12.22;61.49
7802;BME280;3945;48.952;9.506;2023-02-13T10:30:47;99886.97;;;12.41;60.36
7802;BME280;3945;48.952;9.506;2023-02-13T10:33:15;99880.63;;;12.62;60.17
7802;BME280;3945;48.952;9.506;2023-02-13T10:35:49;99880.81;;;12.87;59.29
7802;BME280;3945;48.952;9.506;2023-02-13T10:38:17;99873.19;;;13.17;58.96
7802;BME280;3945;48.952;9.506;2023-02-13T10:40:47;99868.59;;;13.44;58.51
7802;BME280;3945;48.952;9.506;2023-02-13T10:43:17;99865.75;;;13.77;58.04
7802;BME280;3945;48.952;9.506;2023-02-13T10:45:48;99862.31;;;14.07;56.09
7802;BME280;3945;48.952;9.506;2023-02-13T10:48:20;99860.25;;;14.34;55.27
7802;BME280;3945;48.952;9.506;2023-02-13T10:50:55;99857.56;;;14.41;54.65
7802;BME280;3945;48.952;9.506;2023-02-13T10:53:27;99856.81;;;14.59;54.33
7802;BME280;3945;48.952;9.506;2023-02-13T10:56:07;99856.16;;;14.63;54.29
7802;BME280;3945;48.952;9.506;2023-02-13T10:58:39;99851.88;;;14.80;53.99
7802;BME280;3945;48.952;9.506;2023-02-13T11:01:10;99848.47;;;14.92;53.31
7802;BME280;3945;48.952;9.506;2023-02-13T11:03:40;99839.38;;;14.93;53.30
7802;BME280;3945;48.952;9.506;2023-02-13T11:06:10;99834.84;;;14.93;52.98
7802;BME280;3945;48.952;9.506;2023-02-13T11:08:39;99826.97;;;14.98;53.10
7802;BME280;3945;48.952;9.506;2023-02-13T11:13:48;99824.44;;;15.21;53.24
7802;BME280;3945;48.952;9.506;2023-02-13T11:16:37;99820.63;;;15.47;52.88
7802;BME280;3945;48.952;9.506;2023-02-13T11:19:03;99828.09;;;15.45;51.98
7802;BME280;3945;48.952;9.506;2023-02-13T11:21:32;99819.44;;;15.25;52.34
7802;BME280;3945;48.952;9.506;2023-02-13T11:24:00;99818.50;;;15.19;52.99
7802;BME280;3945;48.952;9.506;2023-02-13T11:26:27;99813.28;;;15.24;52.20
7802;BME280;3945;48.952;9.506;2023-02-13T11:28:55;99818.25;;;15.39;52.68
7802;BME280;3945;48.952;9.506;2023-02-13T11:31:25;99810.94;;;15.65;52.68
7802;BME280;3945;48.952;9.506;2023-02-13T11:33:52;99824.59;;;15.27;52.06
7802;BME280;3945;48.952;9.506;2023-02-13T11:36:22;99833.81;;;15.31;52.86
7802;BME280;3945;48.952;9.506;2023-02-13T11:38:57;99823.09;;;15.31;51.75
7802;BME280;3945;48.952;9.506;2023-02-13T11:41:23;99826.31;;;15.39;53.97
7802;BME280;3945;48.952;9.506;2023-02-13T11:43:52;99817.06;;;15.53;51.52
7802;BME280;3945;48.952;9.506;2023-02-13T11:46:25;99820.56;;;15.54;52.18
7802;BME280;3945;48.952;9.506;2023-02-13T11:48:56;99813.47;;;15.59;52.54
7802;BME280;3945;48.952;9.506;2023-02-13T11:54:21;99818.47;;;15.86;51.59
7802;BME280;3945;48.952;9.506;2023-02-13T11:56:48;99816.97;;;16.20;51.40
7802;BME280;3945;48.952;9.506;2023-02-13T11:59:15;99813.00;;;16.34;50.70
7802;BME280;3945;48.952;9.506;2023-02-13T12:01:41;99815.13;;;16.44;49.21
7802;BME280;3945;48.952;9.506;2023-02-13T12:04:12;99817.69;;;16.50;51.02
7802;BME280;3945;48.952;9.506;2023-02-13T12:06:59;99811.84;;;16.42;50.04
7802;BME280;3945;48.952;9.506;2023-02-13T12:09:28;99812.03;;;16.28;50.53
7802;BME280;3945;48.952;9.506;2023-02-13T12:11:56;99810.06;;;16.12;50.47
7802;BME280;3945;48.952;9.506;2023-02-13T12:14:23;99808.66;;;16.21;52.26
7802;BME280;3945;48.952;9.506;2023-02-13T12:16:51;99805.41;;;16.31;51.62
7802;BME280;3945;48.952;9.506;2023-02-13T12:19:20;99805.88;;;16.39;51.48
7802;BME280;3945;48.952;9.506;2023-02-13T12:21:58;99800.28;;;16.41;50.07
7802;BME280;3945;48.952;9.506;2023-02-13T12:24:35;99804.84;;;16.40;50.72
7802;BME280;3945;48.952;9.506;2023-02-13T12:27:07;99809.28;;;16.35;50.12
7802;BME280;3945;48.952;9.506;2023-02-13T12:29:46;99806.22;;;16.43;50.60
7802;BME280;3945;48.952;9.506;2023-02-13T12:32:17;99804.63;;;16.42;50.23
7802;BME280;3945;48.952;9.506;2023-02-13T12:34:50;99798.97;;;16.32;49.83
7802;BME280;3945;48.952;9.506;2023-02-13T12:37:23;99798.06;;;16.38;51.19
7802;BME280;3945;48.952;9.506;2023-02-13T12:39:57;99798.41;;;16.53;50.18
7802;BME280;3945;48.952;9.506;2023-02-13T12:42:42;99791.50;;;16.57;50.19
7802;BME280;3945;48.952;9.506;2023-02-13T12:48:09;99783.22;;;16.59;48.82
7802;BME280;3945;48.952;9.506;2023-02-13T12:50:45;99782.31;;;16.65;49.46
7802;BME280;3945;48.952;9.506;2023-02-13T12:53:24;99786.19;;;16.69;48.51
7802;BME280;3945;48.952;9.506;2023-02-13T12:56:04;99780.09;;;16.73;48.40
7802;BME280;3945;48.952;9.506;2023-02-13T13:01:24;99781.72;;;16.86;48.72
7802;BME280;3945;48.952;9.506;2023-02-13T13:03:53;99778.56;;;16.89;48.59
7802;BME280;3945;48.952;9.506;2023-02-13T13:06:33;99781.72;;;16.86;47.93
7802;BME280;3945;48.952;9.506;2023-02-13T13:11:56;99782.78;;;16.73;47.84
7802;BME280;3945;48.952;9.506;2023-02-13T13:14:28;99768.97;;;16.82;47.93
7802;BME280;3945;48.952;9.506;2023-02-13T13:17:01;99774.13;;;16.83;48.12
7802;BME280;3945;48.952;9.506;2023-02-13T13:19:34;99772.00;;;16.97;48.10
7802;BME280;3945;48.952;9.506;2023-02-13T13:22:03;99777.72;;;17.00;46.93
7802;BME280;3945;48.952;9.506;2023-02-13T13:24:41;99771.53;;;16.88;48.05
7802;BME280;3945;48.952;9.506;2023-02-13T13:27:16;99767.81;;;16.89;47.60
7802;BME280;3945;48.952;9.506;2023-02-13T13:29:44;99767.91;;;16.94;47.90
7802;BME280;3945;48.952;9.506;2023-02-13T13:32:12;99766.75;;;16.90;47.59
7802;BME280;3945;48.952;9.506;2023-02-13T13:34:40;99760.69;;;16.83;48.06
7802;BME280;3945;48.952;9.506;2023-02-13T13:37:08;99767.38;;;16.69;48.25
7802;BME280;3945;48.952;9.506;2023-02-13T13:39:40;99763.38;;;16.71;48.87
7802;BME280;3945;48.952;9.506;2023-02-13T13:42:10;99759.19;;;16.64;48.05
7802;BME280;3945;48.952;9.506;2023-02-13T13:47:35;99774.56;;;16.33;47.71
7802;BME280;3945;48.952;9.506;2023-02-13T13:50:05;99755.06;;;16.38;49.18
7802;BME280;3945;48.952;9.506;2023-02-13T13:52:52;99751.31;;;16.39;49.38
7802;BME280;3945;48.952;9.506;2023-02-13T13:55:57;99754.47;;;16.36;48.68
7802;BME280;3945;48.952;9.506;2023-02-13T13:58:25;99750.50;;;16.27;48.88
7802;BME280;3945;48.952;9.506;2023-02-13T14:01:19;99754.25;;;16.26;49.71
7802;BME280;3945;48.952;9.506;2023-02-13T14:03:47;99755.50;;;16.23;48.51
7802;BME280;3945;48.952;9.506;2023-02-13T14:06:14;99755.50;;;16.23;48.49